sensor_id;sensor_type;location;lat;lon;timestamp;pressure;altitude;pressure_sealevel;temperature;humidity
47913;BME280;33676;51.006;17.180;2023-07-29T00:01:04;99527.48;;;17.14;85.87
47913;BME280;33676;51.006;17.180;2023-07-29T00:03:31;99526.73;;;17.13;86.22
47913;BME280;33676;51.006;17.180;2023-07-29T00:05:59;99528.14;;;17.13;86.30
47913;BME280;33676;51.006;17.180;2023-07-29T00:08:26;99528.27;;;17.13;86.49
47913;BME280;33676;51.006;17.180;2023-07-29T00:10:53;99528.28;;;17.13;86.51
47913;BME280;33676;51.006;17.180;2023-07-29T00:13:20;99534.34;;;17.13;86.35
47913;BME280;33676;51.006;17.180;2023-07-29T00:15:49;99530.98;;;17.12;86.26
47913;BME280;33676;51.006;17.180;2023-07-29T00:18:16;99536.25;;;17.10;86.18
47913;BME280;33676;51.006;17.180;2023-07-29T00:20:43;99538.81;;;17.05;86.11
47913;BME280;33676;51.006;17.180;2023-07-29T00:23:10;99539.82;;;17.00;86.01
47913;BME280;33676;51.006;17.180;2023-07-29T00:25:37;99536.75;;;16.94;85.87
47913;BME280;33676;51.006;17.180;2023-07-29T00:28:04;99539.73;;;16.90;85.92
47913;BME280;33676;51.006;17.180;2023-07-29T00:30:31;99533.14;;;16.85;86.01
47913;BME280;33676;51.006;17.180;2023-07-29T00:32:58;99532.34;;;16.82;86.12
47913;BME280;33676;51.006;17.180;2023-07-29T00:35:26;99533.65;;;16.79;86.31
47913;BME280;33676;51.006;17.180;2023-07-29T00:37:53;99532.04;;;16.78;86.45
47913;BME280;33676;51.006;17.180;2023-07-29T00:40:22;99531.06;;;16.76;86.46
47913;BME280;33676;51.006;17.180;2023-07-29T00:42:49;99533.79;;;16.74;86.62
47913;BME280;33676;51.006;17.180;2023-07-29T00:45:18;99533.88;;;16.72;86.72
47913;BME280;33676;51.006;17.180;2023-07-29T00:47:46;99533.48;;;16.67;86.58
47913;BME280;33676;51.006;17.180;2023-07-29T00:50:14;99539.60;;;16.66;86.78
47913;BME280;33676;51.006;17.180;2023-07-29T00:52:42;99541.93;;;16.64;86.97
47913;BME280;33676;51.006;17.180;2023-07-29T00:55:09;99538.87;;;16.64;86.98
47913;BME280;33676;51.006;17.180;2023-07-29T00:57:36;99541.15;;;16.62;86.99
47913;BME280;33676;51.006;17.180;2023-07-29T01:00:05;99534.46;;;16.59;87.03
47913;BME280;33676;51.006;17.180;2023-07-29T01:02:32;99536.16;;;16.56;87.10
47913;BME280;33676;51.006;17.180;2023-07-29T01:05:00;99537.14;;;16.54;87.02
47913;BME280;33676;51.006;17.180;2023-07-29T01:07:42;99539.53;;;16.51;87.14
47913;BME280;33676;51.006;17.180;2023-07-29T01:13:23;99540.69;;;16.46;87.17
47913;BME280;33676;51.006;17.180;2023-07-29T01:15:55;99537.60;;;16.42;87.38
47913;BME280;33676;51.006;17.180;2023-07-29T01:18:31;99535.81;;;16.38;87.26
47913;BME280;33676;51.006;17.180;2023-07-29T01:21:07;99536.39;;;16.34;87.29
47913;BME280;33676;51.006;17.180;2023-07-29T01:23:35;99535.98;;;16.32;87.51
47913;BME280;33676;51.006;17.180;2023-07-29T01:26:03;99539.13;;;16.29;87.51
47913;BME280;33676;51.006;17.180;2023-07-29T01:28:30;99540.93;;;16.27;87.65
47913;BME280;33676;51.006;17.180;2023-07-29T01:31:34;99539.69;;;16.24;87.63
47913;BME280;33676;51.006;17.180;2023-07-29T01:34:31;99542.64;;;16.21;87.74
47913;BME280;33676;51.006;17.180;2023-07-29T01:36:59;99542.09;;;16.20;88.18
47913;BME280;33676;51.006;17.180;2023-07-29T01:39:32;99536.54;;;16.19;88.17
47913;BME280;33676;51.006;17.180;2023-07-29T01:42:02;99540.69;;;16.16;88.02
47913;BME280;33676;51.006;17.180;2023-07-29T01:44:29;99540.07;;;16.14;88.15
47913;BME280;33676;51.006;17.180;2023-07-29T01:46:56;99537.27;;;16.13;88.29
47913;BME280;33676;51.006;17.180;2023-07-29T01:49:23;99537.79;;;16.11;88.20
47913;BME280;33676;51.006;17.180;2023-07-29T01:51:50;99537.90;;;16.10;88.56
47913;BME280;33676;51.006;17.180;2023-07-29T01:54:17;99540.61;;;16.10;88.59
47913;BME280;33676;51.006;17.180;2023-07-29T01:56:44;99541.58;;;16.08;88.39
47913;BME280;33676;51.006;17.180;2023-07-29T01:59:12;99543.94;;;16.05;88.48
47913;BME280;33676;51.006;17.180;2023-07-29T02:01:40;99543.84;;;16.03;88.52
47913;BME280;33676;51.006;17.180;2023-07-29T02:04:07;99548.82;;;16.01;88.54
47913;BME280;33676;51.006;17.180;2023-07-29T02:06:34;99547.89;;;16.00;88.68
47913;BME280;33676;51.006;17.180;2023-07-29T02:09:02;99550.91;;;15.99;88.77
47913;BME280;33676;51.006;17.180;2023-07-29T02:11:31;99551.64;;;15.95;88.71
47913;BME280;33676;51.006;17.180;2023-07-29T02:13:58;99545.48;;;15.94;88.91
47913;BME280;33676;51.006;17.180;2023-07-29T02:16:25;99545.02;;;15.93;89.11
47913;BME280;33676;51.006;17.180;2023-07-29T02:18:52;99545.28;;;15.92;89.08
47913;BME280;33676;51.006;17.180;2023-07-29T02:21:22;99546.31;;;15.91;89.03
47913;BME280;33676;51.006;17.180;2023-07-29T02:23:49;99548.59;;;15.89;89.16
47913;BME280;33676;51.006;17.180;2023-07-29T02:26:17;99543.31;;;15.87;89.22
47913;BME280;33676;51.006;17.180;2023-07-29T02:28:44;99536.38;;;15.85;89.07
47913;BME280;33676;51.006;17.180;2023-07-29T02:31:23;99529.94;;;15.82;89.22
47913;BME280;33676;51.006;17.180;2023-07-29T02:33:51;99529.23;;;15.81;89.30
47913;BME280;33676;51.006;17.180;2023-07-29T02:36:19;99525.95;;;15.79;89.33
47913;BME280;33676;51.006;17.180;2023-07-29T02:38:46;99529.30;;;15.77;89.42
47913;BME280;33676;51.006;17.180;2023-07-29T02:41:13;99530.27;;;15.75;89.42
47913;BME280;33676;51.006;17.180;2023-07-29T02:43:49;99529.41;;;15.73;89.48
47913;BME280;33676;51.006;17.180;2023-07-29T02:46:17;99527.64;;;15.71;89.65
47913;BME280;33676;51.006;17.180;2023-07-29T02:48:44;99528.54;;;15.68;89.54
47913;BME280;33676;51.006;17.180;2023-07-29T02:51:12;99531.45;;;15.67;89.72
47913;BME280;33676;51.006;17.180;2023-07-29T02:53:39;99531.58;;;15.68;89.99
47913;BME280;33676;51.006;17.180;2023-07-29T02:56:06;99532.70;;;15.67;90.02
47913;BME280;33676;51.006;17.180;2023-07-29T02:58:37;99526.10;;;15.66;90.15
47913;BME280;33676;51.006;17.180;2023-07-29T03:01:05;99533.44;;;15.65;90.15
47913;BME280;33676;51.006;17.180;2023-07-29T03:03:33;99529.05;;;15.65;90.13
47913;BME280;33676;51.006;17.180;2023-07-29T03:06:09;99530.70;;;15.65;90.21
47913;BME280;33676;51.006;17.180;2023-07-29T03:08:37;99535.23;;;15.64;90.25
47913;BME280;33676;51.006;17.180;2023-07-29T03:11:10;99540.58;;;15.63;90.29
47913;BME280;33676;51.006;17.180;2023-07-29T03:13:38;99540.15;;;15.62;90.55
47913;BME280;33676;51.006;17.180;2023-07-29T03:16:10;99541.95;;;15.60;90.37
47913;BME280;33676;51.006;17.180;2023-07-29T03:18:38;99541.21;;;15.59;90.48
47913;BME280;33676;51.006;17.180;2023-07-29T03:21:06;99546.62;;;15.59;90.53
47913;BME280;33676;51.006;17.180;2023-07-29T03:23:34;99549.46;;;15.59;90.65
47913;BME280;33676;51.006;17.180;2023-07-29T03:26:03;99552.63;;;15.59;90.69
47913;BME280;33676;51.006;17.180;2023-07-29T03:28:41;99553.57;;;15.59;90.55
47913;BME280;33676;51.006;17.180;2023-07-29T03:31:10;99554.05;;;15.56;90.51
47913;BME280;33676;51.006;17.180;2023-07-29T03:33:37;99555.96;;;15.54;90.45
47913;BME280;33676;51.006;17.180;2023-07-29T03:36:05;99553.94;;;15.53;90.66
47913;BME280;33676;51.006;17.180;2023-07-29T03:38:32;99553.02;;;15.54;90.70
47913;BME280;33676;51.006;17.180;2023-07-29T03:41:02;99556.09;;;15.55;90.90
47913;BME280;33676;51.006;17.180;2023-07-29T03:43:29;99552.52;;;15.55;90.98
47913;BME280;33676;51.006;17.180;2023-07-29T03:45:56;99556.23;;;15.57;91.25
47913;BME280;33676;51.006;17.180;2023-07-29T03:48:24;99554.60;;;15.60;91.56
47913;BME280;33676;51.006;17.180;2023-07-29T03:50:51;99552.23;;;15.64;91.95
47913;BME280;33676;51.006;17.180;2023-07-29T03:53:18;99556.92;;;15.68;91.96
47913;BME280;33676;51.006;17.180;2023-07-29T03:55:45;99555.19;;;15.71;92.14
47913;BME280;33676;51.006;17.180;2023-07-29T03:58:12;99561.79;;;15.73;92.08
47913;BME280;33676;51.006;17.180;2023-07-29T04:00:39;99565.06;;;15.74;92.10
47913;BME280;33676;51.006;17.180;2023-07-29T04:03:06;99567.92;;;15.77;92.20
47913;BME280;33676;51.006;17.180;2023-07-29T04:05:34;99564.61;;;15.80;92.21
47913;BME280;33676;51.006;17.180;2023-07-29T04:08:01;99566.63;;;15.82;92.29
47913;BME280;33676;51.006;17.180;2023-07-29T04:10:28;99563.88;;;15.84;92.37
47913;BME280;33676;51.006;17.180;2023-07-29T04:12:56;99567.77;;;15.88;92.54
47913;BME280;33676;51.006;17.180;2023-07-29T04:15:23;99570.83;;;15.92;92.69
47913;BME280;33676;51.006;17.180;2023-07-29T04:17:50;99571.56;;;15.97;92.87
47913;BME280;33676;51.006;17.180;2023-07-29T04:20:17;99569.77;;;16.01;93.14
47913;BME280;33676;51.006;17.180;2023-07-29T04:22:44;99569.31;;;16.07;93.11
47913;BME280;33676;51.006;17.180;2023-07-29T04:25:11;99565.25;;;16.12;93.17
47913;BME280;33676;51.006;17.180;2023-07-29T04:27:39;99567.94;;;16.16;93.20
47913;BME280;33676;51.006;17.180;2023-07-29T04:30:07;99567.11;;;16.21;93.15
47913;BME280;33676;51.006;17.180;2023-07-29T04:32:34;99561.14;;;16.26;93.26
47913;BME280;33676;51.006;17.180;2023-07-29T04:35:02;99564.68;;;16.32;93.44
47913;BME280;33676;51.006;17.180;2023-07-29T04:37:29;99568.31;;;16.39;93.65
47913;BME280;33676;51.006;17.180;2023-07-29T04:39:56;99572.78;;;16.46;93.70
47913;BME280;33676;51.006;17.180;2023-07-29T04:42:23;99571.74;;;16.53;93.84
47913;BME280;33676;51.006;17.180;2023-07-29T04:44:50;99575.02;;;16.61;93.83
47913;BME280;33676;51.006;17.180;2023-07-29T04:47:17;99572.24;;;16.69;93.95
47913;BME280;33676;51.006;17.180;2023-07-29T04:49:44;99577.61;;;16.78;94.04
47913;BME280;33676;51.006;17.180;2023-07-29T04:52:11;99578.88;;;16.87;94.07
47913;BME280;33676;51.006;17.180;2023-07-29T04:54:38;99575.26;;;16.94;94.32
47913;BME280;33676;51.006;17.180;2023-07-29T04:57:06;99576.39;;;17.01;94.40
47913;BME280;33676;51.006;17.180;2023-07-29T04:59:33;99574.17;;;17.04;94.42
47913;BME280;33676;51.006;17.180;2023-07-29T05:02:00;99568.79;;;17.08;94.37
47913;BME280;33676;51.006;17.180;2023-07-29T05:04:27;99572.70;;;17.14;94.54
47913;BME280;33676;51.006;17.180;2023-07-29T05:06:54;99573.91;;;17.22;94.76
47913;BME280;33676;51.006;17.180;2023-07-29T05:09:22;99566.34;;;17.31;94.98
47913;BME280;33676;51.006;17.180;2023-07-29T05:11:49;99563.70;;;17.38;95.05
47913;BME280;33676;51.006;17.180;2023-07-29T05:14:17;99571.10;;;17.47;95.30
47913;BME280;33676;51.006;17.180;2023-07-29T05:16:44;99574.80;;;17.58;95.51
47913;BME280;33676;51.006;17.180;2023-07-29T05:19:11;99575.77;;;17.67;95.73
47913;BME280;33676;51.006;17.180;2023-07-29T05:21:39;99577.96;;;17.78;96.00
47913;BME280;33676;51.006;17.180;2023-07-29T05:24:06;99579.29;;;17.88;96.31
47913;BME280;33676;51.006;17.180;2023-07-29T05:26:33;99578.91;;;17.99;96.64
47913;BME280;33676;51.006;17.180;2023-07-29T05:29:01;99580.98;;;18.11;96.81
47913;BME280;33676;51.006;17.180;2023-07-29T05:31:28;99584.39;;;18.23;97.26
47913;BME280;33676;51.006;17.180;2023-07-29T05:33:56;99585.27;;;18.36;97.50
47913;BME280;33676;51.006;17.180;2023-07-29T05:36:23;99586.61;;;18.50;97.59
47913;BME280;33676;51.006;17.180;2023-07-29T05:38:52;99585.70;;;18.65;97.86
47913;BME280;33676;51.006;17.180;2023-07-29T05:41:19;99591.10;;;18.78;98.09
47913;BME280;33676;51.006;17.180;2023-07-29T05:43:46;99590.83;;;18.91;98.23
47913;BME280;33676;51.006;17.180;2023-07-29T05:46:14;99584.95;;;19.05;98.38
47913;BME280;33676;51.006;17.180;2023-07-29T05:48:44;99580.34;;;19.21;98.57
47913;BME280;33676;51.006;17.180;2023-07-29T05:51:11;99583.88;;;19.37;98.76
47913;BME280;33676;51.006;17.180;2023-07-29T05:53:38;99580.71;;;19.53;98.91
47913;BME280;33676;51.006;17.180;2023-07-29T05:56:05;99585.54;;;19.68;99.14
47913;BME280;33676;51.006;17.180;2023-07-29T05:58:32;99586.09;;;19.83;99.11
47913;BME280;33676;51.006;17.180;2023-07-29T06:00:59;99584.14;;;19.98;99.22
47913;BME280;33676;51.006;17.180;2023-07-29T06:03:26;99584.44;;;20.09;99.16
47913;BME280;33676;51.006;17.180;2023-07-29T06:05:54;99583.61;;;20.23;99.01
47913;BME280;33676;51.006;17.180;2023-07-29T06:08:21;99582.12;;;20.35;99.04
47913;BME280;33676;51.006;17.180;2023-07-29T06:10:48;99578.88;;;20.49;99.05
47913;BME280;33676;51.006;17.180;2023-07-29T06:13:16;99578.84;;;20.65;99.01
47913;BME280;33676;51.006;17.180;2023-07-29T06:15:43;99580.20;;;20.78;99.07
47913;BME280;33676;51.006;17.180;2023-07-29T06:18:10;99579.27;;;20.94;99.08
47913;BME280;33676;51.006;17.180;2023-07-29T06:20:37;99580.58;;;21.09;99.22
47913;BME280;33676;51.006;17.180;2023-07-29T06:23:04;99582.04;;;21.23;99.13
47913;BME280;33676;51.006;17.180;2023-07-29T06:25:31;99584.56;;;21.37;99.10
47913;BME280;33676;51.006;17.180;2023-07-29T06:27:58;99585.29;;;21.51;98.85
47913;BME280;33676;51.006;17.180;2023-07-29T06:30:25;99589.02;;;21.66;98.67
47913;BME280;33676;51.006;17.180;2023-07-29T06:32:52;99585.04;;;21.80;98.74
47913;BME280;33676;51.006;17.180;2023-07-29T06:35:19;99589.14;;;21.95;98.56
47913;BME280;33676;51.006;17.180;2023-07-29T06:37:47;99588.96;;;22.09;98.48
47913;BME280;33676;51.006;17.180;2023-07-29T06:40:14;99587.56;;;22.22;98.09
47913;BME280;33676;51.006;17.180;2023-07-29T06:42:41;99590.71;;;22.34;97.95
47913;BME280;33676;51.006;17.180;2023-07-29T06:45:08;99596.40;;;22.45;97.74
47913;BME280;33676;51.006;17.180;2023-07-29T06:47:37;99595.98;;;22.57;97.57
47913;BME280;33676;51.006;17.180;2023-07-29T06:50:04;99597.27;;;22.70;97.39
47913;BME280;33676;51.006;17.180;2023-07-29T06:52:32;99593.69;;;22.81;97.37
47913;BME280;33676;51.006;17.180;2023-07-29T06:54:59;99593.10;;;22.93;97.03
47913;BME280;33676;51.006;17.180;2023-07-29T06:57:26;99581.69;;;23.02;96.64
47913;BME280;33676;51.006;17.180;2023-07-29T06:59:54;99580.27;;;23.10;96.16
47913;BME280;33676;51.006;17.180;2023-07-29T07:02:20;99584.08;;;23.19;96.20
47913;BME280;33676;51.006;17.180;2023-07-29T07:04:48;99581.94;;;23.29;95.88
47913;BME280;33676;51.006;17.180;2023-07-29T07:07:15;99580.91;;;23.37;95.62
47913;BME280;33676;51.006;17.180;2023-07-29T07:09:43;99583.20;;;23.46;95.23
47913;BME280;33676;51.006;17.180;2023-07-29T07:12:10;99585.46;;;23.54;94.86
47913;BME280;33676;51.006;17.180;2023-07-29T07:14:37;99582.27;;;23.60;94.77
47913;BME280;33676;51.006;17.180;2023-07-29T07:17:05;99573.16;;;23.66;94.32
47913;BME280;33676;51.006;17.180;2023-07-29T07:19:32;99577.25;;;23.73;94.29
47913;BME280;33676;51.006;17.180;2023-07-29T07:21:59;99578.70;;;23.81;94.12
47913;BME280;33676;51.006;17.180;2023-07-29T07:24:26;99576.65;;;23.88;93.54
47913;BME280;33676;51.006;17.180;2023-07-29T07:26:53;99577.86;;;23.95;93.60
47913;BME280;33676;51.006;17.180;2023-07-29T07:29:20;99576.57;;;24.04;93.52
47913;BME280;33676;51.006;17.180;2023-07-29T07:31:53;99578.23;;;24.13;93.36
47913;BME280;33676;51.006;17.180;2023-07-29T07:34:21;99580.64;;;24.22;93.10
47913;BME280;33676;51.006;17.180;2023-07-29T07:36:49;99576.50;;;24.30;92.91
47913;BME280;33676;51.006;17.180;2023-07-29T07:39:16;99575.08;;;24.38;92.60
47913;BME280;33676;51.006;17.180;2023-07-29T07:41:44;99578.52;;;24.46;92.01
47913;BME280;33676;51.006;17.180;2023-07-29T07:44:11;99576.02;;;24.58;92.49
47913;BME280;33676;51.006;17.180;2023-07-29T07:46:42;99577.45;;;24.71;92.79
47913;BME280;33676;51.006;17.180;2023-07-29T07:49:09;99575.67;;;24.88;92.66
47913;BME280;33676;51.006;17.180;2023-07-29T07:51:36;99572.21;;;25.01;92.24
47913;BME280;33676;51.006;17.180;2023-07-29T07:54:03;99571.66;;;25.18;92.58
47913;BME280;33676;51.006;17.180;2023-07-29T07:56:30;99569.30;;;25.36;92.07
47913;BME280;33676;51.006;17.180;2023-07-29T07:58:57;99562.88;;;25.37;91.04
47913;BME280;33676;51.006;17.180;2023-07-29T08:01:24;99560.39;;;25.41;90.51
47913;BME280;33676;51.006;17.180;2023-07-29T08:03:52;99558.58;;;25.43;90.23
47913;BME280;33676;51.006;17.180;2023-07-29T08:06:19;99560.63;;;25.44;89.65
47913;BME280;33676;51.006;17.180;2023-07-29T08:08:46;99565.88;;;25.46;89.27
47913;BME280;33676;51.006;17.180;2023-07-29T08:11:13;99564.45;;;25.50;89.01
47913;BME280;33676;51.006;17.180;2023-07-29T08:13:40;99566.78;;;25.58;88.87
47913;BME280;33676;51.006;17.180;2023-07-29T08:16:07;99569.63;;;25.66;88.55
47913;BME280;33676;51.006;17.180;2023-07-29T08:18:34;99567.20;;;25.76;88.44
47913;BME280;33676;51.006;17.180;2023-07-29T08:21:02;99564.11;;;25.84;87.95
47913;BME280;33676;51.006;17.180;2023-07-29T08:23:36;99564.96;;;25.94;87.68
47913;BME280;33676;51.006;17.180;2023-07-29T08:26:05;99561.71;;;26.04;87.31
47913;BME280;33676;51.006;17.180;2023-07-29T08:28:37;99555.04;;;26.17;87.29
47913;BME280;33676;51.006;17.180;2023-07-29T08:31:05;99549.17;;;26.27;87.02
47913;BME280;33676;51.006;17.180;2023-07-29T08:33:33;99540.53;;;26.32;86.49
47913;BME280;33676;51.006;17.180;2023-07-29T08:36:02;99537.22;;;26.38;86.41
47913;BME280;33676;51.006;17.180;2023-07-29T08:38:31;99534.21;;;26.44;86.01
47913;BME280;33676;51.006;17.180;2023-07-29T08:41:14;99531.17;;;26.53;86.02
47913;BME280;33676;51.006;17.180;2023-07-29T08:43:56;99529.30;;;26.65;85.57
47913;BME280;33676;51.006;17.180;2023-07-29T08:46:28;99529.09;;;26.75;84.47
47913;BME280;33676;51.006;17.180;2023-07-29T08:48:55;99528.08;;;26.84;83.99
47913;BME280;33676;51.006;17.180;2023-07-29T08:51:23;99522.48;;;27.04;84.91
47913;BME280;33676;51.006;17.180;2023-07-29T08:53:52;99524.98;;;27.26;84.65
47913;BME280;33676;51.006;17.180;2023-07-29T08:56:19;99519.06;;;27.37;83.84
47913;BME280;33676;51.006;17.180;2023-07-29T08:58:47;99515.27;;;27.43;83.44
47913;BME280;33676;51.006;17.180;2023-07-29T09:01:15;99513.32;;;27.46;82.90
47913;BME280;33676;51.006;17.180;2023-07-29T09:03:42;99511.60;;;27.54;82.88
47913;BME280;33676;51.006;17.180;2023-07-29T09:06:10;99509.13;;;27.66;82.57
47913;BME280;33676;51.006;17.180;2023-07-29T09:08:38;99505.83;;;27.73;81.89
47913;BME280;33676;51.006;17.180;2023-07-29T09:11:06;99505.77;;;27.77;81.56
47913;BME280;33676;51.006;17.180;2023-07-29T09:13:35;99506.90;;;27.77;80.86
47913;BME280;33676;51.006;17.180;2023-07-29T09:16:04;99503.80;;;27.79;80.78
47913;BME280;33676;51.006;17.180;2023-07-29T09:18:32;99506.89;;;27.84;80.17
47913;BME280;33676;51.006;17.180;2023-07-29T09:21:01;99506.64;;;27.82;79.31
47913;BME280;33676;51.006;17.180;2023-07-29T09:23:38;99503.54;;;27.75;79.02
47913;BME280;33676;51.006;17.180;2023-07-29T09:26:06;99502.05;;;27.69;78.64
47913;BME280;33676;51.006;17.180;2023-07-29T09:28:38;99500.05;;;27.61;78.28
47913;BME280;33676;51.006;17.180;2023-07-29T09:31:06;99503.85;;;27.54;77.96
47913;BME280;33676;51.006;17.180;2023-07-29T09:33:35;99504.27;;;27.61;78.42
47913;BME280;33676;51.006;17.180;2023-07-29T09:36:10;99505.43;;;27.76;78.30
47913;BME280;33676;51.006;17.180;2023-07-29T09:38:38;99504.55;;;27.87;77.89
47913;BME280;33676;51.006;17.180;2023-07-29T09:41:06;99502.19;;;28.07;78.28
47913;BME280;33676;51.006;17.180;2023-07-29T09:43:36;99495.56;;;28.18;77.83
47913;BME280;33676;51.006;17.180;2023-07-29T09:46:04;99490.55;;;28.19;77.17
47913;BME280;33676;51.006;17.180;2023-07-29T09:48:36;99488.88;;;28.18;76.47
47913;BME280;33676;51.006;17.180;2023-07-29T09:51:14;99490.63;;;28.10;76.06
47913;BME280;33676;51.006;17.180;2023-07-29T09:53:49;99488.82;;;28.06;76.00
47913;BME280;33676;51.006;17.180;2023-07-29T09:56:24;99492.52;;;28.05;75.83
47913;BME280;33676;51.006;17.180;2023-07-29T09:58:55;99489.40;;;28.19;76.17
47913;BME280;33676;51.006;17.180;2023-07-29T10:01:24;99486.56;;;28.53;77.03
47913;BME280;33676;51.006;17.180;2023-07-29T10:03:52;99479.25;;;28.95;77.34
47913;BME280;33676;51.006;17.180;2023-07-29T10:06:19;99485.13;;;29.26;76.79
47913;BME280;33676;51.006;17.180;2023-07-29T10:08:49;99486.33;;;29.52;76.64
47913;BME280;33676;51.006;17.180;2023-07-29T10:11:16;99483.55;;;29.86;76.38
47913;BME280;33676;51.006;17.180;2023-07-29T10:13:47;99484.58;;;30.16;75.94
47913;BME280;33676;51.006;17.180;2023-07-29T10:16:36;99485.13;;;30.48;75.35
47913;BME280;33676;51.006;17.180;2023-07-29T10:19:04;99483.25;;;30.78;74.63
47913;BME280;33676;51.006;17.180;2023-07-29T10:21:32;99483.63;;;31.06;73.41
47913;BME280;33676;51.006;17.180;2023-07-29T10:24:02;99480.17;;;31.27;72.77
47913;BME280;33676;51.006;17.180;2023-07-29T10:26:31;99475.95;;;31.45;71.77
47913;BME280;33676;51.006;17.180;2023-07-29T10:29:04;99476.85;;;31.69;70.24
47913;BME280;33676;51.006;17.180;2023-07-29T10:31:32;99479.41;;;31.80;69.46
47913;BME280;33676;51.006;17.180;2023-07-29T10:34:01;99478.30;;;31.96;69.56
47913;BME280;33676;51.006;17.180;2023-07-29T10:36:29;99479.16;;;32.10;68.84
47913;BME280;33676;51.006;17.180;2023-07-29T10:38:56;99478.13;;;32.17;68.43
47913;BME280;33676;51.006;17.180;2023-07-29T10:42:03;99475.25;;;32.18;67.74
47913;BME280;33676;51.006;17.180;2023-07-29T10:44:52;99472.14;;;32.22;67.19
47913;BME280;33676;51.006;17.180;2023-07-29T10:47:28;99470.85;;;32.29;66.80
47913;BME280;33676;51.006;17.180;2023-07-29T10:49:58;99468.73;;;32.38;66.47
47913;BME280;33676;51.006;17.180;2023-07-29T10:52:40;99463.27;;;32.41;65.92
47913;BME280;33676;51.006;17.180;2023-07-29T10:55:34;99460.01;;;32.27;65.65
47913;BME280;33676;51.006;17.180;2023-07-29T10:58:15;99452.94;;;32.29;65.59
47913;BME280;33676;51.006;17.180;2023-07-29T11:00:45;99444.30;;;32.22;65.61
47913;BME280;33676;51.006;17.180;2023-07-29T11:03:13;99444.61;;;32.33;64.91
47913;BME280;33676;51.006;17.180;2023-07-29T11:05:51;99447.20;;;32.44;64.51
47913;BME280;33676;51.006;17.180;2023-07-29T11:08:30;99444.43;;;32.57;64.13
47913;BME280;33676;51.006;17.180;2023-07-29T11:11:08;99443.32;;;32.67;64.09
47913;BME280;33676;51.006;17.180;2023-07-29T11:13:39;99439.30;;;32.79;63.66
47913;BME280;33676;51.006;17.180;2023-07-29T11:16:06;99437.09;;;32.78;62.86
47913;BME280;33676;51.006;17.180;2023-07-29T11:18:35;99431.02;;;32.81;63.08
47913;BME280;33676;51.006;17.180;2023-07-29T11:21:03;99428.80;;;32.93;62.44
47913;BME280;33676;51.006;17.180;2023-07-29T11:23:34;99423.85;;;32.99;62.34
47913;BME280;33676;51.006;17.180;2023-07-29T11:26:03;99419.83;;;33.10;62.39
47913;BME280;33676;51.006;17.180;2023-07-29T11:28:38;99420.11;;;33.28;61.62
47913;BME280;33676;51.006;17.180;2023-07-29T11:31:05;99430.20;;;33.34;60.62
47913;BME280;33676;51.006;17.180;2023-07-29T11:33:32;99422.31;;;33.31;60.12
47913;BME280;33676;51.006;17.180;2023-07-29T11:36:00;99415.27;;;33.26;60.05
47913;BME280;33676;51.006;17.180;2023-07-29T11:38:27;99415.25;;;33.35;60.29
47913;BME280;33676;51.006;17.180;2023-07-29T11:41:01;99411.30;;;33.34;60.29
47913;BME280;33676;51.006;17.180;2023-07-29T11:43:35;99412.45;;;33.47;60.25
47913;BME280;33676;51.006;17.180;2023-07-29T11:46:03;99401.55;;;33.49;59.89
47913;BME280;33676;51.006;17.180;2023-07-29T11:48:32;99398.65;;;33.46;59.83
47913;BME280;33676;51.006;17.180;2023-07-29T11:51:02;99397.55;;;33.52;59.78
47913;BME280;33676;51.006;17.180;2023-07-29T11:53:30;99402.81;;;33.61;59.94
47913;BME280;33676;51.006;17.180;2023-07-29T11:55:58;99401.91;;;33.54;59.28
47913;BME280;33676;51.006;17.180;2023-07-29T11:58:26;99402.67;;;33.41;58.97
47913;BME280;33676;51.006;17.180;2023-07-29T12:00:53;99402.57;;;33.27;58.56
47913;BME280;33676;51.006;17.180;2023-07-29T12:03:21;99401.00;;;33.22;58.67
47913;BME280;33676;51.006;17.180;2023-07-29T12:05:49;99394.02;;;33.15;58.68
47913;BME280;33676;51.006;17.180;2023-07-29T12:08:17;99392.93;;;33.00;58.54
47913;BME280;33676;51.006;17.180;2023-07-29T12:10:44;99394.75;;;32.82;58.67
47913;BME280;33676;51.006;17.180;2023-07-29T12:13:12;99399.63;;;32.71;58.97
47913;BME280;33676;51.006;17.180;2023-07-29T12:15:39;99400.61;;;32.64;58.37
47913;BME280;33676;51.006;17.180;2023-07-29T12:18:07;99397.70;;;32.49;58.05
47913;BME280;33676;51.006;17.180;2023-07-29T12:20:34;99398.53;;;32.41;58.32
47913;BME280;33676;51.006;17.180;2023-07-29T12:23:02;99398.89;;;32.36;58.37
47913;BME280;33676;51.006;17.180;2023-07-29T12:25:29;99394.83;;;32.37;58.32
47913;BME280;33676;51.006;17.180;2023-07-29T12:28:02;99383.51;;;32.57;58.67
47913;BME280;33676;51.006;17.180;2023-07-29T12:30:29;99387.30;;;32.92;58.91
47913;BME280;33676;51.006;17.180;2023-07-29T12:32:56;99380.56;;;33.22;58.70
47913;BME280;33676;51.006;17.180;2023-07-29T12:35:24;99375.98;;;33.45;58.18
47913;BME280;33676;51.006;17.180;2023-07-29T12:38:00;99365.37;;;33.55;57.63
47913;BME280;33676;51.006;17.180;2023-07-29T12:40:27;99369.73;;;33.67;57.45
47913;BME280;33676;51.006;17.180;2023-07-29T12:42:55;99370.36;;;33.87;57.22
47913;BME280;33676;51.006;17.180;2023-07-29T12:45:22;99368.84;;;33.95;56.74
47913;BME280;33676;51.006;17.180;2023-07-29T12:47:53;99365.86;;;34.01;56.39
47913;BME280;33676;51.006;17.180;2023-07-29T12:50:20;99355.48;;;34.14;56.37
47913;BME280;33676;51.006;17.180;2023-07-29T12:52:48;99353.48;;;34.30;56.22
47913;BME280;33676;51.006;17.180;2023-07-29T12:55:15;99356.37;;;34.19;55.98
47913;BME280;33676;51.006;17.180;2023-07-29T12:57:42;99349.52;;;34.09;56.38
47913;BME280;33676;51.006;17.180;2023-07-29T13:00:11;99350.04;;;34.10;56.44
47913;BME280;33676;51.006;17.180;2023-07-29T13:02:38;99347.52;;;33.94;56.16